createdAt,value
2023-02-24T00:02:20.102Z,125.73
2023-02-24T00:04:51.846Z,202.80
2023-02-24T00:07:20.352Z,115.37
2023-02-24T00:09:49.053Z,81.50
2023-02-24T00:12:20.696Z,85.13
2023-02-24T00:14:48.665Z,238.30
2023-02-24T00:17:16.722Z,81.50
2023-02-24T00:19:46.379Z,121.73
2023-02-24T00:22:15.689Z,144.17
2023-02-24T00:24:43.642Z,190.27
2023-02-24T00:27:12.366Z,229.67
2023-02-24T00:29:42.062Z,161.97
2023-02-24T00:32:12.869Z,256.17
2023-02-24T00:34:41.332Z,114.83
2023-02-24T00:37:10.023Z,188.50
2023-02-24T00:39:41.715Z,69.70
2023-02-24T00:42:09.965Z,57.13
2023-02-24T00:44:39.912Z,82.00
2023-02-24T00:47:10.312Z,187.90
2023-02-24T00:49:42.180Z,46.57
2023-02-24T00:52:13.606Z,112.83
2023-02-24T00:54:43.363Z,43.93
2023-02-24T00:57:12.424Z,151.63
2023-02-24T00:59:41.079Z,120.03
2023-02-24T01:02:09.059Z,120.97
2023-02-24T01:04:38.472Z,140.30
2023-02-24T01:07:10.877Z,107.60
2023-02-24T01:09:42.764Z,52.93
2023-02-24T01:12:30.212Z,84.17
2023-02-24T01:14:58.198Z,121.43
2023-02-24T01:17:26.431Z,24.93
2023-02-24T01:19:55.109Z,41.20
2023-02-24T01:22:23.879Z,165.50
2023-02-24T01:24:53.389Z,79.83
2023-02-24T01:27:21.385Z,51.37
2023-02-24T01:29:49.912Z,98.67
2023-02-24T01:32:20.963Z,76.83
2023-02-24T01:34:51.985Z,30.17
2023-02-24T01:37:20.460Z,95.00
2023-02-24T01:39:49.273Z,137.00
2023-02-24T01:42:21.374Z,230.93
2023-02-24T01:45:13.356Z,86.93
2023-02-24T01:47:42.846Z,46.03
2023-02-24T01:50:15.534Z,47.33
2023-02-24T01:52:46.370Z,41.33
2023-02-24T01:55:20.174Z,166.50
2023-02-24T01:57:52.470Z,39.60
2023-02-24T02:00:32.983Z,72.53
2023-02-24T02:03:08.055Z,108.60
2023-02-24T02:05:36.395Z,35.97
2023-02-24T02:08:04.657Z,42.03
2023-02-24T02:10:34.012Z,34.07
2023-02-24T02:13:04.578Z,47.70
2023-02-24T02:15:37.968Z,74.53
2023-02-24T02:18:13.448Z,37.67
2023-02-24T02:21:06.129Z,74.60
2023-02-24T02:24:00.281Z,46.23
2023-02-24T02:26:47.399Z,91.63
2023-02-24T02:29:46.500Z,163.90
2023-02-24T02:32:53.195Z,97.07
2023-02-24T02:35:26.763Z,119.20
2023-02-24T02:38:03.268Z,106.83
2023-02-24T02:40:39.386Z,66.53
2023-02-24T02:43:17.216Z,51.60
2023-02-24T02:45:51.692Z,64.57
2023-02-24T02:48:24.278Z,192.37
2023-02-24T02:50:56.267Z,71.67
2023-02-24T02:53:30.228Z,77.47
2023-02-24T02:56:04.080Z,69.00
2023-02-24T02:58:36.169Z,73.30
2023-02-24T03:01:07.285Z,41.50
2023-02-24T03:03:39.644Z,131.80
2023-02-24T03:06:12.971Z,114.87
2023-02-24T03:08:45.084Z,28.27
2023-02-24T03:11:17.639Z,70.03
2023-02-24T03:13:49.571Z,85.40
2023-02-24T03:16:18.928Z,69.47
2023-02-24T03:18:51.894Z,89.97
2023-02-24T03:21:30.610Z,119.77
2023-02-24T03:23:58.797Z,82.57
2023-02-24T03:26:31.618Z,249.87
2023-02-24T03:29:07.558Z,117.37
2023-02-24T03:31:43.711Z,186.27
2023-02-24T03:34:16.053Z,84.80
2023-02-24T03:36:45.850Z,182.13
2023-02-24T03:39:15.799Z,68.60
2023-02-24T03:41:56.203Z,67.90
2023-02-24T03:44:24.721Z,142.20
2023-02-24T03:46:54.981Z,156.93
2023-02-24T03:49:25.345Z,42.67
2023-02-24T03:52:10.748Z,74.03
2023-02-24T03:55:06.248Z,64.40
2023-02-24T03:57:54.911Z,67.50
2023-02-24T04:00:34.279Z,62.67
2023-02-24T04:03:18.409Z,42.60
2023-02-24T04:05:52.830Z,87.73
2023-02-24T04:08:25.228Z,73.43
2023-02-24T04:11:00.052Z,74.73
2023-02-24T04:13:35.387Z,163.67
2023-02-24T04:16:11.173Z,68.00
2023-02-24T04:18:41.669Z,95.43
2023-02-24T04:21:09.678Z,111.27
2023-02-24T04:23:43.662Z,74.90
2023-02-24T04:26:14.923Z,85.63
2023-02-24T04:28:44.007Z,26.83
2023-02-24T04:31:17.491Z,124.20
2023-02-24T04:33:50.295Z,31.93
2023-02-24T04:36:18.975Z,88.60
2023-02-24T04:38:48.630Z,91.27
2023-02-24T04:41:21.196Z,95.07
2023-02-24T04:43:50.764Z,87.87
2023-02-24T04:46:19.030Z,120.37
2023-02-24T04:48:47.084Z,39.43
2023-02-24T04:51:15.088Z,94.80
2023-02-24T04:53:43.319Z,27.73
2023-02-24T04:56:12.615Z,93.20
2023-02-24T04:58:42.655Z,85.23
2023-02-24T05:01:11.815Z,42.23
2023-02-24T05:03:42.474Z,76.13
2023-02-24T05:06:16.044Z,53.23
2023-02-24T05:08:45.013Z,56.87
2023-02-24T05:11:17.036Z,83.03
2023-02-24T05:13:47.164Z,401.53
2023-02-24T05:16:18.173Z,88.23
2023-02-24T05:18:46.428Z,65.03
2023-02-24T05:21:33.443Z,89.50
2023-02-24T05:24:06.537Z,73.17
2023-02-24T05:26:38.044Z,89.63
2023-02-24T05:29:07.568Z,173.70
2023-02-24T05:31:36.990Z,46.73
2023-02-24T05:34:07.660Z,112.03
2023-02-24T05:36:39.102Z,115.20
2023-02-24T05:39:12.441Z,331.93
2023-02-24T05:41:44.176Z,112.50
2023-02-24T05:44:15.797Z,88.27
2023-02-24T05:46:45.526Z,115.03
2023-02-24T05:49:16.141Z,75.67
2023-02-24T05:51:54.592Z,89.27
2023-02-24T05:54:25.814Z,60.47
2023-02-24T05:56:57.007Z,80.27
2023-02-24T05:59:25.288Z,85.77
2023-02-24T06:01:54.122Z,96.57
2023-02-24T06:04:39.106Z,258.13
2023-02-24T06:07:13.619Z,77.73
2023-02-24T06:09:42.989Z,91.43
2023-02-24T06:12:14.613Z,54.43
2023-02-24T06:14:43.268Z,55.87
2023-02-24T06:17:11.218Z,73.60
2023-02-24T06:19:41.197Z,76.63
2023-02-24T06:22:13.056Z,76.37
2023-02-24T06:24:44.201Z,73.03
2023-02-24T06:27:17.904Z,45.93
2023-02-24T06:29:50.039Z,102.97
2023-02-24T06:32:18.786Z,110.87
2023-02-24T06:34:47.059Z,126.37
2023-02-24T06:37:16.248Z,76.67
2023-02-24T06:39:44.337Z,176.43
2023-02-24T06:42:14.024Z,215.20
2023-02-24T06:44:42.901Z,131.77
2023-02-24T06:47:14.351Z,112.17
2023-02-24T06:49:42.714Z,72.23
2023-02-24T06:52:18.317Z,46.33
2023-02-24T06:54:48.931Z,91.70
2023-02-24T06:57:20.361Z,124.13
2023-02-24T06:59:49.018Z,55.40
2023-02-24T07:02:17.941Z,214.57
2023-02-24T07:04:46.080Z,358.67
2023-02-24T07:07:15.143Z,118.97
2023-02-24T07:09:45.416Z,112.97
2023-02-24T07:12:13.654Z,345.83
2023-02-24T07:14:42.991Z,115.17
2023-02-24T07:17:14.701Z,78.33
2023-02-24T07:19:42.719Z,433.10
2023-02-24T07:22:10.842Z,212.47
2023-02-24T07:24:41.315Z,265.83
2023-02-24T07:27:13.051Z,167.23
2023-02-24T07:29:42.447Z,161.67
2023-02-24T07:32:11.589Z,105.37
2023-02-24T07:34:40.938Z,147.63
2023-02-24T07:37:10.045Z,203.77
2023-02-24T07:39:39.479Z,124.83
2023-02-24T07:42:09.237Z,250.53
2023-02-24T07:44:39.011Z,82.27
2023-02-24T07:47:08.830Z,82.70
2023-02-24T07:49:37.360Z,191.73
2023-02-24T07:52:08.147Z,112.50
2023-02-24T07:54:36.822Z,188.10
2023-02-24T07:57:06.420Z,340.37
2023-02-24T07:59:38.036Z,282.03
2023-02-24T08:02:07.874Z,366.00
2023-02-24T08:04:41.194Z,425.03
2023-02-24T08:07:14.352Z,183.93
2023-02-24T08:10:08.252Z,221.20
2023-02-24T08:12:36.227Z,272.27
2023-02-24T08:15:17.286Z,391.53
2023-02-24T08:17:47.370Z,482.77
2023-02-24T08:20:22.881Z,534.87
2023-02-24T08:22:53.119Z,605.73
2023-02-24T08:25:24.906Z,189.50
2023-02-24T08:28:12.524Z,375.70
2023-02-24T08:30:45.726Z,315.70
2023-02-24T08:33:19.244Z,805.73
2023-02-24T08:35:53.200Z,487.57
2023-02-24T08:38:26.406Z,438.20
2023-02-24T08:40:57.243Z,429.37
2023-02-24T08:43:36.675Z,458.00
2023-02-24T08:46:18.267Z,296.70
2023-02-24T08:48:48.529Z,728.10
2023-02-24T08:51:22.961Z,577.37
2023-02-24T08:53:53.715Z,857.90
2023-02-24T08:56:27.146Z,397.27
2023-02-24T08:59:05.472Z,908.93
2023-02-24T09:01:35.714Z,408.77
2023-02-24T09:04:07.341Z,325.57
2023-02-24T09:06:44.769Z,454.30
2023-02-24T09:09:18.388Z,562.97
2023-02-24T09:11:47.830Z,668.43
2023-02-24T09:14:26.710Z,609.33
2023-02-24T09:17:11.516Z,321.57
2023-02-24T09:20:07.434Z,221.47
2023-02-24T09:22:55.808Z,999.90
2023-02-24T09:25:24.214Z,572.43
2023-02-24T09:27:55.743Z,931.03
2023-02-24T09:30:36.747Z,999.90
2023-02-24T09:33:21.101Z,812.07
2023-02-24T09:35:52.128Z,984.27
2023-02-24T09:38:45.165Z,944.43
2023-02-24T09:41:31.706Z,881.23
2023-02-24T09:44:07.497Z,407.10
2023-02-24T09:46:53.880Z,343.07
2023-02-24T09:49:25.362Z,399.83
2023-02-24T09:52:00.586Z,453.77
2023-02-24T09:54:35.326Z,284.20
2023-02-24T09:57:09.938Z,536.23
2023-02-24T10:00:01.108Z,893.00
2023-02-24T10:02:44.530Z,825.13
2023-02-24T10:05:23.351Z,764.17
2023-02-24T10:07:53.219Z,746.50
2023-02-24T10:10:28.280Z,588.60
2023-02-24T10:13:09.628Z,943.07
2023-02-24T10:15:59.313Z,965.70
2023-02-24T10:18:31.450Z,593.00
2023-02-24T10:21:06.546Z,739.13
2023-02-24T10:23:45.247Z,833.40
2023-02-24T10:26:31.654Z,938.60
2023-02-24T10:29:09.134Z,672.73
2023-02-24T10:31:45.995Z,436.83
2023-02-24T10:34:20.250Z,690.00
2023-02-24T10:36:50.391Z,999.90
2023-02-24T10:39:25.336Z,684.27
2023-02-24T10:41:58.281Z,836.70
2023-02-24T10:44:36.363Z,882.37
2023-02-24T10:47:12.395Z,999.90
2023-02-24T10:49:56.941Z,906.50
2023-02-24T10:53:10.928Z,882.03
2023-02-24T10:55:54.129Z,982.37
2023-02-24T10:58:37.763Z,937.13
2023-02-24T11:01:13.611Z,692.90
2023-02-24T11:04:01.100Z,786.80
2023-02-24T11:06:48.173Z,737.03
2023-02-24T11:09:32.084Z,425.97
2023-02-24T11:12:22.479Z,552.77
2023-02-24T11:15:12.663Z,691.47
2023-02-24T11:17:50.773Z,930.30
2023-02-24T11:20:46.071Z,926.13
2023-02-24T11:23:19.757Z,894.83
2023-02-24T11:25:50.207Z,999.90
2023-02-24T11:28:30.436Z,960.60
2023-02-24T11:31:08.574Z,704.93
2023-02-24T11:33:42.446Z,493.20
2023-02-24T11:36:20.581Z,830.70
2023-02-24T11:39:11.824Z,419.33
2023-02-24T11:41:50.951Z,881.87
2023-02-24T11:44:28.257Z,792.37
2023-02-24T11:47:03.985Z,412.43
2023-02-24T11:49:38.179Z,960.37
2023-02-24T11:52:11.569Z,694.43
2023-02-24T11:54:44.775Z,623.60
2023-02-24T11:57:19.295Z,695.07
2023-02-24T11:59:53.332Z,367.77
2023-02-24T12:02:35.722Z,938.63
2023-02-24T12:05:12.717Z,598.17
2023-02-24T12:07:45.067Z,512.87
2023-02-24T12:10:19.084Z,680.37
2023-02-24T12:12:53.958Z,732.30
2023-02-24T12:15:26.323Z,783.13
2023-02-24T12:18:04.350Z,859.77
2023-02-24T12:20:41.548Z,373.53
2023-02-24T12:23:18.020Z,158.40
2023-02-24T12:26:01.988Z,231.17
2023-02-24T12:28:46.144Z,210.63
2023-02-24T12:31:24.701Z,291.63
2023-02-24T12:34:08.603Z,133.30
2023-02-24T12:37:05.568Z,59.47
2023-02-24T12:39:42.056Z,65.17
2023-02-24T12:42:23.230Z,294.70
2023-02-24T12:45:01.740Z,113.30
2023-02-24T12:47:44.006Z,81.20
2023-02-24T12:50:31.189Z,133.47
2023-02-24T12:53:09.340Z,157.50
2023-02-24T12:55:44.197Z,53.13
2023-02-24T12:58:15.269Z,39.47
2023-02-24T13:00:58.631Z,66.97
2023-02-24T13:03:36.751Z,56.80
2023-02-24T13:06:16.494Z,115.47
2023-02-24T13:08:54.333Z,79.60
2023-02-24T13:11:37.403Z,64.77
2023-02-24T13:14:13.646Z,117.60
2023-02-24T13:16:42.346Z,55.50
2023-02-24T13:19:21.028Z,37.43
2023-02-24T13:22:08.714Z,42.47
2023-02-24T13:24:38.626Z,102.83
2023-02-24T13:27:15.343Z,370.87
2023-02-24T13:29:45.557Z,68.70
2023-02-24T13:32:32.432Z,52.87
2023-02-24T13:35:02.645Z,605.73
2023-02-24T13:37:35.718Z,58.77
2023-02-24T13:40:22.609Z,83.97
2023-02-24T13:42:59.344Z,650.57
2023-02-24T13:45:29.487Z,326.43
2023-02-24T13:48:22.860Z,141.50
2023-02-24T13:51:08.185Z,502.83
2023-02-24T13:53:52.561Z,999.90
2023-02-24T13:56:36.700Z,437.07
2023-02-24T13:59:41.779Z,109.40
2023-02-24T14:02:16.057Z,442.27
2023-02-24T14:04:50.017Z,378.40
2023-02-24T14:07:23.279Z,172.13
2023-02-24T14:09:57.576Z,299.00
2023-02-24T14:12:28.204Z,229.90
2023-02-24T14:14:57.468Z,108.47
2023-02-24T14:17:28.763Z,104.00
2023-02-24T14:20:08.946Z,84.67
2023-02-24T14:22:44.140Z,159.83
2023-02-24T14:25:15.726Z,215.40
2023-02-24T14:27:45.227Z,87.83
2023-02-24T14:30:25.966Z,125.83
2023-02-24T14:32:54.425Z,81.80
2023-02-24T14:35:28.591Z,80.27
2023-02-24T14:37:57.619Z,203.73
2023-02-24T14:40:27.868Z,63.03
2023-02-24T14:42:57.209Z,166.20
2023-02-24T14:45:26.906Z,564.83
2023-02-24T14:47:55.875Z,623.80
2023-02-24T14:50:28.340Z,114.07
2023-02-24T14:53:00.332Z,57.93
2023-02-24T14:55:32.731Z,71.60
2023-02-24T14:58:05.851Z,88.57
2023-02-24T15:00:37.478Z,164.47
2023-02-24T15:03:11.976Z,41.17
2023-02-24T15:05:45.965Z,87.00
2023-02-24T15:08:26.904Z,98.33
2023-02-24T15:10:56.759Z,139.97
2023-02-24T15:13:34.854Z,102.40
2023-02-24T15:16:10.239Z,61.30
2023-02-24T15:18:38.255Z,125.30
2023-02-24T15:21:08.466Z,268.97
2023-02-24T15:23:38.943Z,84.00
2023-02-24T15:26:08.760Z,232.90
2023-02-24T15:28:38.213Z,431.37
2023-02-24T15:31:11.077Z,179.10
2023-02-24T15:33:41.268Z,55.20
2023-02-24T15:36:18.632Z,182.50
2023-02-24T15:38:47.195Z,79.53
2023-02-24T15:41:16.739Z,167.27
2023-02-24T15:43:50.241Z,92.93
2023-02-24T15:46:25.172Z,82.60
2023-02-24T15:48:55.496Z,179.27
2023-02-24T15:51:31.977Z,142.20
2023-02-24T15:54:01.492Z,193.67
2023-02-24T15:56:33.590Z,125.00
2023-02-24T15:59:02.459Z,86.00
2023-02-24T16:01:31.420Z,315.27
2023-02-24T16:03:59.364Z,77.73
2023-02-24T16:06:29.448Z,109.63
2023-02-24T16:08:58.749Z,91.53
2023-02-24T16:11:30.074Z,108.10
2023-02-24T16:14:01.588Z,104.63
2023-02-24T16:16:29.644Z,125.00
2023-02-24T16:18:57.818Z,111.00
2023-02-24T16:21:25.938Z,403.47
2023-02-24T16:23:53.936Z,92.30
2023-02-24T16:26:23.964Z,272.23
2023-02-24T16:28:55.035Z,161.93
2023-02-24T16:31:26.136Z,310.30
2023-02-24T16:33:55.947Z,169.53
2023-02-24T16:36:25.424Z,146.33
2023-02-24T16:38:53.902Z,145.77
2023-02-24T16:41:21.928Z,370.90
2023-02-24T16:43:49.926Z,180.73
2023-02-24T16:46:21.309Z,469.23
2023-02-24T16:48:53.244Z,252.67
2023-02-24T16:51:22.347Z,122.13
2023-02-24T16:53:50.301Z,67.37
2023-02-24T16:56:18.248Z,102.43
2023-02-24T16:58:46.190Z,96.10
2023-02-24T17:01:20.264Z,51.80
2023-02-24T17:03:51.891Z,86.83
2023-02-24T17:06:22.342Z,45.63
2023-02-24T17:08:51.129Z,56.20
2023-02-24T17:11:21.982Z,95.00
2023-02-24T17:13:49.991Z,186.87
2023-02-24T17:16:17.975Z,180.93
2023-02-24T17:18:46.067Z,61.23
2023-02-24T17:21:16.813Z,162.70
2023-02-24T17:23:45.846Z,76.13
2023-02-24T17:26:16.054Z,38.07
2023-02-24T17:28:44.344Z,226.13
2023-02-24T17:31:12.573Z,183.20
2023-02-24T17:33:41.475Z,62.87
2023-02-24T17:36:09.451Z,309.70
2023-02-24T17:38:39.036Z,94.20
2023-02-24T17:41:06.992Z,463.07
2023-02-24T17:43:34.995Z,63.13
2023-02-24T17:46:06.994Z,310.67
2023-02-24T17:48:35.729Z,116.70
2023-02-24T17:51:03.804Z,336.37
2023-02-24T17:53:32.261Z,78.90
2023-02-24T17:56:05.437Z,71.40
2023-02-24T17:58:33.888Z,127.13
2023-02-24T18:01:02.878Z,111.50
2023-02-24T18:03:31.974Z,160.43
2023-02-24T18:06:01.446Z,60.80
2023-02-24T18:08:30.449Z,192.97
2023-02-24T18:10:59.927Z,206.50
2023-02-24T18:13:30.378Z,147.90
2023-02-24T18:15:58.750Z,203.37
2023-02-24T18:18:27.818Z,144.37
2023-02-24T18:21:01.623Z,175.60
2023-02-24T18:23:29.617Z,260.07
2023-02-24T18:25:57.601Z,87.83
2023-02-24T18:28:25.540Z,114.47
2023-02-24T18:30:54.953Z,122.33
2023-02-24T18:33:23.058Z,75.33
2023-02-24T18:35:59.206Z,133.50
2023-02-24T18:38:27.561Z,280.80
2023-02-24T18:40:59.930Z,386.10
2023-02-24T18:43:28.396Z,160.17
2023-02-24T18:46:02.969Z,101.90
2023-02-24T18:48:32.384Z,122.10
2023-02-24T18:51:01.565Z,74.53
2023-02-24T18:53:34.167Z,59.47
2023-02-24T18:56:03.536Z,45.93
2023-02-24T18:58:31.878Z,106.50
2023-02-24T19:01:01.795Z,100.30
2023-02-24T19:03:29.732Z,71.33
2023-02-24T19:05:57.673Z,57.97
2023-02-24T19:08:25.661Z,165.63
2023-02-24T19:10:53.614Z,99.23
2023-02-24T19:13:24.012Z,86.90
2023-02-24T19:15:52.241Z,117.63
2023-02-24T19:18:21.549Z,61.47
2023-02-24T19:20:49.489Z,146.27
2023-02-24T19:23:17.427Z,66.90
2023-02-24T19:25:45.380Z,73.50
2023-02-24T19:28:13.898Z,43.77
2023-02-24T19:30:42.778Z,67.70
2023-02-24T19:33:10.991Z,194.93
2023-02-24T19:35:43.379Z,97.83
2023-02-24T19:38:15.027Z,95.30
2023-02-24T19:40:43.847Z,56.30
2023-02-24T19:43:12.082Z,133.47
2023-02-24T19:45:42.633Z,114.17
2023-02-24T19:48:11.358Z,217.20
2023-02-24T19:50:42.010Z,133.13
2023-02-24T19:53:10.073Z,55.43
2023-02-24T19:55:38.215Z,212.27
2023-02-24T19:58:06.283Z,54.00
2023-02-24T20:00:34.265Z,77.10
2023-02-24T20:03:02.190Z,70.80
2023-02-24T20:05:30.132Z,229.27
2023-02-24T20:07:59.648Z,56.73
2023-02-24T20:10:27.588Z,119.37
2023-02-24T20:12:58.003Z,156.33
2023-02-24T20:15:26.004Z,62.80
2023-02-24T20:17:53.956Z,93.07
2023-02-24T20:20:22.199Z,88.37
2023-02-24T20:22:50.240Z,51.73
2023-02-24T20:25:19.733Z,68.70
2023-02-24T20:27:47.816Z,60.23
2023-02-24T20:30:16.208Z,72.60
2023-02-24T20:32:44.326Z,90.47
2023-02-24T20:35:12.916Z,29.43
2023-02-24T20:37:40.905Z,66.67
2023-02-24T20:40:10.564Z,59.60
2023-02-24T20:42:39.876Z,82.63
2023-02-24T20:45:09.075Z,59.23
2023-02-24T20:47:37.082Z,58.20
2023-02-24T20:50:05.757Z,81.67
2023-02-24T20:52:34.311Z,64.13
2023-02-24T20:55:02.455Z,56.17
2023-02-24T20:57:30.481Z,83.23
2023-02-24T21:00:07.200Z,60.47
2023-02-24T21:02:35.252Z,53.83
2023-02-24T21:05:03.415Z,64.37
2023-02-24T21:07:32.761Z,63.70
2023-02-24T21:10:00.779Z,87.20
2023-02-24T21:12:28.822Z,88.13
2023-02-24T21:14:56.841Z,82.73
2023-02-24T21:17:26.318Z,100.17
2023-02-24T21:19:54.387Z,111.00
2023-02-24T21:22:22.653Z,131.77
2023-02-24T21:24:51.533Z,70.07
2023-02-24T21:27:20.066Z,78.40
2023-02-24T21:29:48.596Z,99.93
2023-02-24T21:32:17.119Z,172.37
2023-02-24T21:34:47.466Z,248.97
2023-02-24T21:37:16.089Z,97.77
2023-02-24T21:39:44.658Z,147.43
2023-02-24T21:42:14.220Z,69.17
2023-02-24T21:44:44.570Z,148.63
2023-02-24T21:47:12.979Z,215.40
2023-02-24T21:49:41.092Z,476.43
2023-02-24T21:52:11.678Z,539.00
2023-02-24T21:54:39.952Z,237.70
2023-02-24T21:57:08.287Z,132.73
2023-02-24T21:59:36.842Z,762.27
2023-02-24T22:02:05.589Z,208.97
2023-02-24T22:04:34.912Z,302.83
2023-02-24T22:07:03.624Z,801.67
2023-02-24T22:09:33.733Z,635.00
2023-02-24T22:12:02.280Z,284.40
2023-02-24T22:14:31.669Z,169.10
2023-02-24T22:16:59.924Z,61.67
2023-02-24T22:19:28.034Z,131.83
2023-02-24T22:22:01.291Z,335.80
2023-02-24T22:24:29.337Z,581.43
2023-02-24T22:26:58.825Z,286.67
2023-02-24T22:29:27.037Z,670.90
2023-02-24T22:31:55.203Z,244.70
2023-02-24T22:34:23.268Z,696.40
2023-02-24T22:36:51.230Z,450.57
2023-02-24T22:39:19.369Z,656.90
2023-02-24T22:41:47.871Z,304.07
2023-02-24T22:44:19.239Z,273.73
2023-02-24T22:46:47.748Z,690.13
2023-02-24T22:49:15.732Z,337.13
2023-02-24T22:51:43.706Z,874.87
2023-02-24T22:54:11.629Z,541.00
2023-02-24T22:56:39.652Z,501.53
2023-02-24T22:59:07.596Z,563.33
2023-02-24T23:01:38.167Z,509.37
2023-02-24T23:04:07.770Z,319.50
2023-02-24T23:06:37.061Z,169.80
2023-02-24T23:09:06.234Z,544.03
2023-02-24T23:11:37.220Z,935.70
2023-02-24T23:14:09.933Z,358.80
2023-02-24T23:16:39.736Z,315.23
2023-02-24T23:19:10.609Z,388.80
2023-02-24T23:21:40.680Z,292.23
2023-02-24T23:24:10.872Z,206.53
2023-02-24T23:26:41.916Z,464.37
2023-02-24T23:29:10.451Z,595.17
2023-02-24T23:31:40.980Z,735.13
2023-02-24T23:34:09.900Z,606.57
2023-02-24T23:36:40.345Z,261.73
2023-02-24T23:39:09.335Z,306.63
2023-02-24T23:41:38.042Z,344.33
2023-02-24T23:44:06.822Z,654.37
2023-02-24T23:46:36.090Z,456.47
2023-02-24T23:49:06.345Z,235.10
2023-02-24T23:51:50.099Z,419.77
2023-02-24T23:54:18.844Z,339.77
2023-02-24T23:56:46.895Z,283.60
2023-02-24T23:59:15.269Z,381.17
